^^
Meteo Knjazevac Station Historical Data
Daily Summary for May 19, 2022 Units:  Metric    English   Both
Daily Weekly Monthly Yearly Custom
  High: Low: Average:
Temperature: 7 °C 2.5 °C 4.6 °C
Dew Point: 5.2 °C 1.2 °C 2.9 °C
Humidity: 95% 86% 89%
Wind Speed: 4.8km/h 0km/h 1.8km/h
Wind Gust: 8km/h - -
Wind- - West
Pressure: 1029.3 hPa 1027.7 hPa -
Precipitation: 0 mm    
Historical Graphs
 
 
Tabular Data for May 19, 2022
Time Temperature Dew Point Pressure Wind Wind Speed Wind Gust Humidity Rainfall Rate (Hourly) solar Conditions
00:00 7 °C 5.2 °C 1027.7 hPa Calm   3.2 km/h 88% 0 mm 0 W/m2
00:10 7 °C 4.8 °C 1027.7 hPa NNW 1.6 km/h 3.2 km/h 86% 0 mm 0 W/m2
00:20 6.7 °C 4.5 °C 1027.7 hPa Calm   3.2 km/h 86% 0 mm 0 W/m2
00:30 6.5 °C 4.3 °C 1027.7 hPa Calm   3.2 km/h 86% 0 mm 0 W/m2
00:40 6.2 °C 4.1 °C 1027.7 hPa West 1.6 km/h 3.2 km/h 86% 0 mm 0 W/m2
00:50 6 °C 3.8 °C 1027.7 hPa Calm   3.2 km/h 86% 0 mm 0 W/m2
01:00 5.8 °C 3.6 °C 1027.7 hPa WNW 1.6 km/h 3.2 km/h 86% 0 mm 0 W/m2
01:10 5.6 °C 3.4 °C 1027.7 hPa West 1.6 km/h 3.2 km/h 86% 0 mm 0 W/m2
01:20 5.4 °C 3.6 °C 1028 hPa West 1.6 km/h 4.8 km/h 88% 0 mm 0 W/m2
01:30 5.3 °C 3.4 °C 1028 hPa Calm   3.2 km/h 88% 0 mm 0 W/m2
01:40 5.1 °C 3.3 °C 1028 hPa Calm   3.2 km/h 88% 0 mm 0 W/m2
03:50 4.9 °C 3.1 °C 1028 hPa Calm   3.2 km/h 88% 0 mm 0 W/m2
04:00 4.6 °C 2.8 °C 1028 hPa West 1.6 km/h 4.8 km/h 88% 0 mm 0 W/m2
04:10 4.5 °C 2.7 °C 1028 hPa West 1.6 km/h 3.2 km/h 88% 0 mm 0 W/m2
04:20 4.3 °C 2.7 °C 1028.3 hPa West 1.6 km/h 4.8 km/h 89% 0 mm 0 W/m2
04:30 4.2 °C 2.6 °C 1028.3 hPa WSW 3.2 km/h 4.8 km/h 89% 0 mm 0 W/m2
04:40 4.1 °C 2.6 °C 1028.3 hPa West 4.8 km/h 6.4 km/h 90% 0 mm 0 W/m2
04:50 4.1 °C 2.8 °C 1028.3 hPa West 3.2 km/h 8 km/h 91% 0 mm 0 W/m2
05:00 4.1 °C 2.6 °C 1028.3 hPa West 1.6 km/h 6.4 km/h 90% 0 mm 0 W/m2
05:10 4 °C 2.5 °C 1028.3 hPa Calm   4.8 km/h 90% 0 mm 0 W/m2
05:20 3.3 °C 1.9 °C 1029 hPa WNW 2.3 km/h 8 km/h 90.3% 0 mm 7 W/m2
05:30 2.8 °C 1.5 °C 1029 hPa WNW 3.2 km/h 6.4 km/h 91% 0 mm 19 W/m2
05:40 2.7 °C 1.4 °C 1029 hPa West 1.6 km/h 4.8 km/h 91% 0 mm 28 W/m2
05:50 2.6 °C 1.3 °C 1029 hPa West 4.8 km/h 8 km/h 91% 0 mm 45 W/m2
06:00 2.5 °C 1.2 °C 1029.3 hPa West 3.2 km/h 8 km/h 91% 0 mm 71 W/m2
06:10 2.6 °C 1.6 °C 1029.3 hPa West 1.6 km/h 8 km/h 93% 0 mm 92 W/m2
06:20 2.8 °C 1.9 °C 1029.3 hPa WNW 3.2 km/h 4.8 km/h 94% 0 mm 115 W/m2
06:30 3.2 °C 2.5 °C 1029.3 hPa WNW 3.2 km/h 6.4 km/h 95% 0 mm 141 W/m2
Knjazevac, Serbia
Compliments of Weather Underground - 2 mb